sensor_id;sensor_type;location;lat;lon;timestamp;P1;durP1;ratioP1;P2;durP2;ratioP2
17496;SDS011;62150;43.582;1.456;2023-02-01T06:50:39;8.93;;;3.70;;
17496;SDS011;62150;43.582;1.456;2023-02-01T06:53:06;8.93;;;3.83;;
17496;SDS011;62150;43.582;1.456;2023-02-01T06:55:34;8.73;;;3.60;;
17496;SDS011;62150;43.582;1.456;2023-02-01T06:58:01;8.53;;;3.57;;
17496;SDS011;62150;43.582;1.456;2023-02-01T07:00:29;8.20;;;3.63;;
17496;SDS011;62150;43.582;1.456;2023-02-01T07:02:57;8.83;;;3.37;;
17496;SDS011;62150;43.582;1.456;2023-02-01T07:05:26;9.33;;;3.80;;
17496;SDS011;62150;43.582;1.456;2023-02-01T07:07:55;10.83;;;3.70;;
17496;SDS011;62150;43.582;1.456;2023-02-01T07:10:23;9.70;;;3.60;;
17496;SDS011;62150;43.582;1.456;2023-02-01T07:12:51;9.23;;;3.53;;
17496;SDS011;62150;43.582;1.456;2023-02-01T07:15:18;11.30;;;3.90;;
17496;SDS011;62150;43.582;1.456;2023-02-01T07:17:46;8.80;;;3.67;;
17496;SDS011;62150;43.582;1.456;2023-02-01T07:20:14;10.37;;;4.00;;
17496;SDS011;62150;43.582;1.456;2023-02-01T07:22:42;11.40;;;4.07;;
17496;SDS011;62150;43.582;1.456;2023-02-01T07:25:10;10.07;;;3.83;;
17496;SDS011;62150;43.582;1.456;2023-02-01T07:27:38;9.57;;;3.93;;
17496;SDS011;62150;43.582;1.456;2023-02-01T07:30:06;11.77;;;4.10;;
17496;SDS011;62150;43.582;1.456;2023-02-01T07:32:34;9.93;;;4.00;;
17496;SDS011;62150;43.582;1.456;2023-02-01T07:35:02;10.67;;;4.17;;
17496;SDS011;62150;43.582;1.456;2023-02-01T07:37:30;8.63;;;3.87;;
17496;SDS011;62150;43.582;1.456;2023-02-01T07:39:58;9.70;;;4.00;;
17496;SDS011;62150;43.582;1.456;2023-02-01T07:42:27;8.33;;;3.50;;
17496;SDS011;62150;43.582;1.456;2023-02-01T07:44:55;10.37;;;3.80;;
17496;SDS011;62150;43.582;1.456;2023-02-01T07:47:22;9.20;;;3.67;;
17496;SDS011;62150;43.582;1.456;2023-02-01T07:49:50;10.70;;;3.70;;
17496;SDS011;62150;43.582;1.456;2023-02-01T07:52:17;9.50;;;3.57;;
17496;SDS011;62150;43.582;1.456;2023-02-01T07:54:45;8.67;;;3.47;;
17496;SDS011;62150;43.582;1.456;2023-02-01T07:57:12;8.03;;;3.40;;
17496;SDS011;62150;43.582;1.456;2023-02-01T07:59:41;8.93;;;3.27;;
17496;SDS011;62150;43.582;1.456;2023-02-01T08:02:23;7.70;;;3.13;;
17496;SDS011;62150;43.582;1.456;2023-02-01T08:04:50;8.63;;;3.80;;
17496;SDS011;62150;43.582;1.456;2023-02-01T08:07:19;7.43;;;3.33;;
17496;SDS011;62150;43.582;1.456;2023-02-01T08:09:47;9.73;;;3.50;;
17496;SDS011;62150;43.582;1.456;2023-02-01T08:12:14;8.47;;;3.80;;
17496;SDS011;62150;43.582;1.456;2023-02-01T08:14:43;7.70;;;3.37;;
17496;SDS011;62150;43.582;1.456;2023-02-01T08:17:11;8.50;;;3.37;;
17496;SDS011;62150;43.582;1.456;2023-02-01T08:19:38;7.63;;;3.43;;
17496;SDS011;62150;43.582;1.456;2023-02-01T08:22:06;8.70;;;3.53;;
17496;SDS011;62150;43.582;1.456;2023-02-01T08:24:33;7.87;;;3.13;;
17496;SDS011;62150;43.582;1.456;2023-02-01T08:27:03;7.73;;;3.50;;
17496;SDS011;62150;43.582;1.456;2023-02-01T08:29:30;8.77;;;3.40;;
17496;SDS011;62150;43.582;1.456;2023-02-01T08:31:59;10.00;;;3.80;;
17496;SDS011;62150;43.582;1.456;2023-02-01T08:34:26;7.83;;;3.23;;
17496;SDS011;62150;43.582;1.456;2023-02-01T08:36:54;9.53;;;3.53;;
17496;SDS011;62150;43.582;1.456;2023-02-01T08:39:25;9.90;;;3.60;;
17496;SDS011;62150;43.582;1.456;2023-02-01T08:41:53;9.73;;;3.70;;
17496;SDS011;62150;43.582;1.456;2023-02-01T08:44:34;8.17;;;3.37;;
17496;SDS011;62150;43.582;1.456;2023-02-01T08:47:04;7.13;;;3.03;;
17496;SDS011;62150;43.582;1.456;2023-02-01T08:49:32;7.73;;;3.30;;
17496;SDS011;62150;43.582;1.456;2023-02-01T08:51:59;7.00;;;3.00;;
17496;SDS011;62150;43.582;1.456;2023-02-01T08:54:27;6.30;;;3.17;;
17496;SDS011;62150;43.582;1.456;2023-02-01T08:56:54;9.87;;;4.33;;
17496;SDS011;62150;43.582;1.456;2023-02-01T08:59:22;9.93;;;3.87;;
17496;SDS011;62150;43.582;1.456;2023-02-01T09:01:49;9.27;;;3.80;;
17496;SDS011;62150;43.582;1.456;2023-02-01T09:04:18;6.40;;;2.90;;
17496;SDS011;62150;43.582;1.456;2023-02-01T09:06:46;7.37;;;2.97;;
17496;SDS011;62150;43.582;1.456;2023-02-01T09:09:13;5.97;;;2.80;;
17496;SDS011;62150;43.582;1.456;2023-02-01T09:11:41;7.27;;;2.90;;
17496;SDS011;62150;43.582;1.456;2023-02-01T09:14:08;6.13;;;2.80;;
17496;SDS011;62150;43.582;1.456;2023-02-01T09:16:36;7.43;;;2.67;;
17496;SDS011;62150;43.582;1.456;2023-02-01T09:19:03;6.93;;;2.70;;
17496;SDS011;62150;43.582;1.456;2023-02-01T09:21:32;7.37;;;2.70;;
17496;SDS011;62150;43.582;1.456;2023-02-01T09:24:00;7.60;;;2.70;;
17496;SDS011;62150;43.582;1.456;2023-02-01T09:26:27;8.67;;;3.00;;
17496;SDS011;62150;43.582;1.456;2023-02-01T09:28:54;5.23;;;2.73;;
17496;SDS011;62150;43.582;1.456;2023-02-01T09:31:22;7.13;;;2.50;;
17496;SDS011;62150;43.582;1.456;2023-02-01T09:33:49;5.87;;;2.63;;
17496;SDS011;62150;43.582;1.456;2023-02-01T09:36:17;6.83;;;2.87;;
17496;SDS011;62150;43.582;1.456;2023-02-01T09:38:46;6.27;;;2.70;;
17496;SDS011;62150;43.582;1.456;2023-02-01T09:41:17;8.17;;;2.93;;
17496;SDS011;62150;43.582;1.456;2023-02-01T09:43:59;6.30;;;2.80;;
17496;SDS011;62150;43.582;1.456;2023-02-01T09:46:34;7.17;;;2.90;;
17496;SDS011;62150;43.582;1.456;2023-02-01T09:49:03;6.23;;;2.47;;
17496;SDS011;62150;43.582;1.456;2023-02-01T09:51:34;6.37;;;2.50;;
17496;SDS011;62150;43.582;1.456;2023-02-01T09:54:05;7.47;;;2.70;;
17496;SDS011;62150;43.582;1.456;2023-02-01T09:56:40;7.10;;;2.70;;
17496;SDS011;62150;43.582;1.456;2023-02-01T09:59:15;8.40;;;3.17;;
17496;SDS011;62150;43.582;1.456;2023-02-01T10:01:58;7.70;;;2.70;;
17496;SDS011;62150;43.582;1.456;2023-02-01T10:04:27;6.57;;;2.50;;
17496;SDS011;62150;43.582;1.456;2023-02-01T10:06:57;8.23;;;2.53;;
17496;SDS011;62150;43.582;1.456;2023-02-01T10:12:44;7.13;;;2.60;;
17496;SDS011;62150;43.582;1.456;2023-02-01T10:15:45;8.83;;;2.97;;
17496;SDS011;62150;43.582;1.456;2023-02-01T10:21:14;7.63;;;2.80;;
17496;SDS011;62150;43.582;1.456;2023-02-01T10:23:58;9.80;;;3.10;;
17496;SDS011;62150;43.582;1.456;2023-02-01T10:26:46;6.77;;;2.60;;
17496;SDS011;62150;43.582;1.456;2023-02-01T10:29:19;9.50;;;2.73;;
17496;SDS011;62150;43.582;1.456;2023-02-01T10:31:50;4.83;;;2.40;;
17496;SDS011;62150;43.582;1.456;2023-02-01T10:34:19;7.03;;;2.43;;
17496;SDS011;62150;43.582;1.456;2023-02-01T10:36:53;7.67;;;2.70;;
17496;SDS011;62150;43.582;1.456;2023-02-01T10:39:22;5.30;;;2.30;;
17496;SDS011;62150;43.582;1.456;2023-02-01T10:41:52;9.23;;;2.80;;
17496;SDS011;62150;43.582;1.456;2023-02-01T10:44:22;8.80;;;3.03;;
17496;SDS011;62150;43.582;1.456;2023-02-01T10:46:52;9.03;;;3.30;;
17496;SDS011;62150;43.582;1.456;2023-02-01T10:49:21;8.33;;;2.90;;
17496;SDS011;62150;43.582;1.456;2023-02-01T10:51:54;9.67;;;3.60;;
17496;SDS011;62150;43.582;1.456;2023-02-01T10:54:32;9.10;;;3.43;;
17496;SDS011;62150;43.582;1.456;2023-02-01T10:57:04;7.33;;;2.80;;
17496;SDS011;62150;43.582;1.456;2023-02-01T10:59:35;6.83;;;2.70;;
17496;SDS011;62150;43.582;1.456;2023-02-01T11:02:05;7.83;;;2.50;;
17496;SDS011;62150;43.582;1.456;2023-02-01T11:04:45;8.67;;;2.90;;
17496;SDS011;62150;43.582;1.456;2023-02-01T11:07:14;8.00;;;3.03;;
17496;SDS011;62150;43.582;1.456;2023-02-01T11:09:49;7.53;;;2.70;;
17496;SDS011;62150;43.582;1.456;2023-02-01T11:12:25;7.93;;;2.97;;
17496;SDS011;62150;43.582;1.456;2023-02-01T11:15:00;6.23;;;2.47;;
17496;SDS011;62150;43.582;1.456;2023-02-01T11:17:40;5.57;;;2.40;;
17496;SDS011;62150;43.582;1.456;2023-02-01T11:20:13;7.27;;;2.67;;
17496;SDS011;62150;43.582;1.456;2023-02-01T11:22:45;8.77;;;2.47;;
17496;SDS011;62150;43.582;1.456;2023-02-01T11:25:14;7.60;;;2.70;;
17496;SDS011;62150;43.582;1.456;2023-02-01T11:27:45;6.80;;;2.50;;
17496;SDS011;62150;43.582;1.456;2023-02-01T11:30:15;8.73;;;2.70;;
17496;SDS011;62150;43.582;1.456;2023-02-01T11:32:46;5.93;;;2.50;;
17496;SDS011;62150;43.582;1.456;2023-02-01T11:35:17;7.00;;;2.70;;
17496;SDS011;62150;43.582;1.456;2023-02-01T11:37:48;7.83;;;2.60;;
17496;SDS011;62150;43.582;1.456;2023-02-01T11:40:25;7.23;;;2.30;;
17496;SDS011;62150;43.582;1.456;2023-02-01T11:42:56;7.73;;;2.87;;
17496;SDS011;62150;43.582;1.456;2023-02-01T11:45:26;6.77;;;2.43;;
17496;SDS011;62150;43.582;1.456;2023-02-01T11:47:55;8.07;;;2.80;;
17496;SDS011;62150;43.582;1.456;2023-02-01T11:50:28;8.83;;;3.50;;
17496;SDS011;62150;43.582;1.456;2023-02-01T11:53:07;8.20;;;3.30;;
17496;SDS011;62150;43.582;1.456;2023-02-01T11:55:55;5.17;;;2.80;;
17496;SDS011;62150;43.582;1.456;2023-02-01T11:58:34;7.30;;;2.70;;
17496;SDS011;62150;43.582;1.456;2023-02-01T12:01:25;6.57;;;2.67;;
17496;SDS011;62150;43.582;1.456;2023-02-01T12:04:07;6.23;;;2.57;;
17496;SDS011;62150;43.582;1.456;2023-02-01T12:06:55;7.37;;;2.77;;
17496;SDS011;62150;43.582;1.456;2023-02-01T12:09:34;7.60;;;3.00;;
17496;SDS011;62150;43.582;1.456;2023-02-01T12:12:14;7.80;;;2.87;;
17496;SDS011;62150;43.582;1.456;2023-02-01T12:14:56;5.77;;;2.60;;
17496;SDS011;62150;43.582;1.456;2023-02-01T12:17:47;7.43;;;3.10;;
17496;SDS011;62150;43.582;1.456;2023-02-01T12:20:34;9.37;;;3.80;;
17496;SDS011;62150;43.582;1.456;2023-02-01T12:23:25;9.47;;;4.03;;
17496;SDS011;62150;43.582;1.456;2023-02-01T12:26:22;10.80;;;4.40;;
17496;SDS011;62150;43.582;1.456;2023-02-01T12:29:10;10.23;;;4.10;;
17496;SDS011;62150;43.582;1.456;2023-02-01T12:32:03;8.53;;;3.53;;
17496;SDS011;62150;43.582;1.456;2023-02-01T12:34:46;6.43;;;3.10;;
17496;SDS011;62150;43.582;1.456;2023-02-01T12:37:40;7.67;;;2.77;;
17496;SDS011;62150;43.582;1.456;2023-02-01T12:40:21;7.70;;;2.87;;
17496;SDS011;62150;43.582;1.456;2023-02-01T12:42:59;7.33;;;2.80;;
17496;SDS011;62150;43.582;1.456;2023-02-01T12:45:37;9.07;;;3.30;;
17496;SDS011;62150;43.582;1.456;2023-02-01T12:48:13;6.57;;;3.00;;
17496;SDS011;62150;43.582;1.456;2023-02-01T12:50:50;9.97;;;4.13;;
17496;SDS011;62150;43.582;1.456;2023-02-01T12:53:22;10.40;;;4.23;;
17496;SDS011;62150;43.582;1.456;2023-02-01T12:55:54;9.87;;;3.90;;
17496;SDS011;62150;43.582;1.456;2023-02-01T12:58:26;6.83;;;3.23;;
17496;SDS011;62150;43.582;1.456;2023-02-01T13:00:59;7.43;;;3.20;;
17496;SDS011;62150;43.582;1.456;2023-02-01T13:03:34;6.00;;;2.80;;
17496;SDS011;62150;43.582;1.456;2023-02-01T13:06:06;7.93;;;2.70;;
17496;SDS011;62150;43.582;1.456;2023-02-01T13:08:41;5.43;;;2.70;;
17496;SDS011;62150;43.582;1.456;2023-02-01T13:11:15;6.23;;;2.70;;
17496;SDS011;62150;43.582;1.456;2023-02-01T13:13:49;5.33;;;2.47;;
17496;SDS011;62150;43.582;1.456;2023-02-01T13:16:25;6.30;;;2.30;;
17496;SDS011;62150;43.582;1.456;2023-02-01T13:18:59;3.93;;;1.93;;
17496;SDS011;62150;43.582;1.456;2023-02-01T13:21:34;4.10;;;2.00;;
17496;SDS011;62150;43.582;1.456;2023-02-01T13:24:06;4.60;;;2.00;;
17496;SDS011;62150;43.582;1.456;2023-02-01T13:26:46;5.37;;;2.30;;
17496;SDS011;62150;43.582;1.456;2023-02-01T13:29:14;4.43;;;2.00;;
17496;SDS011;62150;43.582;1.456;2023-02-01T13:35:03;5.47;;;2.00;;
17496;SDS011;62150;43.582;1.456;2023-02-01T13:37:56;2.80;;;1.80;;
17496;SDS011;62150;43.582;1.456;2023-02-01T13:40:52;4.67;;;2.10;;
17496;SDS011;62150;43.582;1.456;2023-02-01T13:43:34;3.00;;;2.10;;
17496;SDS011;62150;43.582;1.456;2023-02-01T13:46:04;4.93;;;2.13;;
17496;SDS011;62150;43.582;1.456;2023-02-01T13:48:35;5.73;;;2.23;;
17496;SDS011;62150;43.582;1.456;2023-02-01T13:51:09;5.27;;;2.30;;
17496;SDS011;62150;43.582;1.456;2023-02-01T13:53:38;4.70;;;2.23;;
17496;SDS011;62150;43.582;1.456;2023-02-01T13:56:13;5.73;;;2.43;;
17496;SDS011;62150;43.582;1.456;2023-02-01T13:58:43;5.57;;;2.40;;
17496;SDS011;62150;43.582;1.456;2023-02-01T14:04:02;8.93;;;2.90;;
17496;SDS011;62150;43.582;1.456;2023-02-01T14:06:36;7.37;;;3.00;;
17496;SDS011;62150;43.582;1.456;2023-02-01T14:09:18;5.63;;;2.70;;
17496;SDS011;62150;43.582;1.456;2023-02-01T14:12:41;5.57;;;2.30;;
17496;SDS011;62150;43.582;1.456;2023-02-01T14:15:20;3.27;;;2.20;;
17496;SDS011;62150;43.582;1.456;2023-02-01T14:17:50;5.67;;;2.30;;
17496;SDS011;62150;43.582;1.456;2023-02-01T14:23:22;5.07;;;2.50;;
17496;SDS011;62150;43.582;1.456;2023-02-01T14:26:01;4.20;;;2.40;;
17496;SDS011;62150;43.582;1.456;2023-02-01T14:28:39;4.23;;;2.10;;
17496;SDS011;62150;43.582;1.456;2023-02-01T14:31:28;7.60;;;2.80;;
17496;SDS011;62150;43.582;1.456;2023-02-01T14:34:00;6.47;;;2.70;;
17496;SDS011;62150;43.582;1.456;2023-02-01T14:36:40;10.93;;;3.50;;
17496;SDS011;62150;43.582;1.456;2023-02-01T14:42:19;6.43;;;2.93;;
17496;SDS011;62150;43.582;1.456;2023-02-01T14:44:50;6.33;;;2.83;;
17496;SDS011;62150;43.582;1.456;2023-02-01T14:50:18;5.23;;;2.67;;
17496;SDS011;62150;43.582;1.456;2023-02-01T14:52:58;5.43;;;2.40;;
17496;SDS011;62150;43.582;1.456;2023-02-01T14:55:42;5.23;;;2.60;;
17496;SDS011;62150;43.582;1.456;2023-02-01T14:58:16;6.70;;;2.80;;
17496;SDS011;62150;43.582;1.456;2023-02-01T15:00:57;9.67;;;3.57;;
17496;SDS011;62150;43.582;1.456;2023-02-01T15:03:41;8.80;;;3.23;;
17496;SDS011;62150;43.582;1.456;2023-02-01T15:06:20;11.33;;;3.87;;
17496;SDS011;62150;43.582;1.456;2023-02-01T15:08:54;7.40;;;2.90;;
17496;SDS011;62150;43.582;1.456;2023-02-01T15:11:26;5.43;;;2.60;;
17496;SDS011;62150;43.582;1.456;2023-02-01T15:13:54;6.37;;;2.50;;
17496;SDS011;62150;43.582;1.456;2023-02-01T15:16:23;5.43;;;2.63;;
17496;SDS011;62150;43.582;1.456;2023-02-01T15:19:06;6.97;;;2.60;;
17496;SDS011;62150;43.582;1.456;2023-02-01T15:21:42;4.60;;;2.40;;
17496;SDS011;62150;43.582;1.456;2023-02-01T15:24:12;4.73;;;2.50;;
17496;SDS011;62150;43.582;1.456;2023-02-01T15:26:42;6.07;;;2.53;;
17496;SDS011;62150;43.582;1.456;2023-02-01T15:29:10;5.73;;;2.50;;
17496;SDS011;62150;43.582;1.456;2023-02-01T15:31:39;5.57;;;2.63;;
17496;SDS011;62150;43.582;1.456;2023-02-01T15:34:09;5.67;;;2.57;;
17496;SDS011;62150;43.582;1.456;2023-02-01T15:36:38;4.10;;;2.13;;
17496;SDS011;62150;43.582;1.456;2023-02-01T15:39:13;3.50;;;2.13;;
17496;SDS011;62150;43.582;1.456;2023-02-01T15:41:49;3.90;;;2.00;;
17496;SDS011;62150;43.582;1.456;2023-02-01T15:44:20;4.83;;;2.20;;
17496;SDS011;62150;43.582;1.456;2023-02-01T15:46:56;3.30;;;1.90;;
17496;SDS011;62150;43.582;1.456;2023-02-01T15:49:26;3.70;;;2.00;;
17496;SDS011;62150;43.582;1.456;2023-02-01T15:51:56;4.03;;;1.90;;
17496;SDS011;62150;43.582;1.456;2023-02-01T15:54:26;3.90;;;1.97;;
17496;SDS011;62150;43.582;1.456;2023-02-01T15:56:58;4.77;;;2.10;;
17496;SDS011;62150;43.582;1.456;2023-02-01T15:59:29;5.03;;;2.10;;
17496;SDS011;62150;43.582;1.456;2023-02-01T16:02:02;5.67;;;2.33;;
17496;SDS011;62150;43.582;1.456;2023-02-01T16:04:30;5.30;;;2.17;;
17496;SDS011;62150;43.582;1.456;2023-02-01T16:06:58;3.87;;;2.13;;
17496;SDS011;62150;43.582;1.456;2023-02-01T16:09:38;5.27;;;2.50;;
17496;SDS011;62150;43.582;1.456;2023-02-01T16:12:23;5.57;;;2.20;;
17496;SDS011;62150;43.582;1.456;2023-02-01T16:14:55;4.00;;;2.10;;
17496;SDS011;62150;43.582;1.456;2023-02-01T16:17:24;5.57;;;2.47;;
17496;SDS011;62150;43.582;1.456;2023-02-01T16:19:55;4.67;;;2.30;;
17496;SDS011;62150;43.582;1.456;2023-02-01T16:22:23;6.20;;;2.43;;
17496;SDS011;62150;43.582;1.456;2023-02-01T16:24:51;6.17;;;2.50;;
17496;SDS011;62150;43.582;1.456;2023-02-01T16:27:18;5.50;;;2.60;;
17496;SDS011;62150;43.582;1.456;2023-02-01T16:29:48;5.67;;;2.80;;
17496;SDS011;62150;43.582;1.456;2023-02-01T16:32:16;4.63;;;2.23;;
17496;SDS011;62150;43.582;1.456;2023-02-01T16:34:46;5.57;;;2.30;;
17496;SDS011;62150;43.582;1.456;2023-02-01T16:37:15;4.43;;;2.10;;
17496;SDS011;62150;43.582;1.456;2023-02-01T16:39:46;3.77;;;2.20;;
17496;SDS011;62150;43.582;1.456;2023-02-01T16:42:14;3.53;;;2.10;;
17496;SDS011;62150;43.582;1.456;2023-02-01T16:44:42;5.40;;;2.17;;
17496;SDS011;62150;43.582;1.456;2023-02-01T16:47:13;4.73;;;2.30;;
17496;SDS011;62150;43.582;1.456;2023-02-01T16:49:43;4.60;;;2.17;;
17496;SDS011;62150;43.582;1.456;2023-02-01T16:52:14;4.20;;;2.00;;
17496;SDS011;62150;43.582;1.456;2023-02-01T16:54:44;4.13;;;2.00;;
17496;SDS011;62150;43.582;1.456;2023-02-01T16:57:12;2.87;;;1.90;;
17496;SDS011;62150;43.582;1.456;2023-02-01T16:59:41;3.70;;;1.90;;
17496;SDS011;62150;43.582;1.456;2023-02-01T17:02:12;3.10;;;1.80;;
17496;SDS011;62150;43.582;1.456;2023-02-01T17:04:41;2.13;;;1.67;;
17496;SDS011;62150;43.582;1.456;2023-02-01T17:07:10;2.03;;;1.60;;
17496;SDS011;62150;43.582;1.456;2023-02-01T17:09:40;3.93;;;1.90;;
17496;SDS011;62150;43.582;1.456;2023-02-01T17:12:09;3.60;;;2.10;;
17496;SDS011;62150;43.582;1.456;2023-02-01T17:14:45;3.30;;;2.00;;
17496;SDS011;62150;43.582;1.456;2023-02-01T17:17:14;3.17;;;1.90;;
17496;SDS011;62150;43.582;1.456;2023-02-01T17:19:43;3.87;;;2.13;;
17496;SDS011;62150;43.582;1.456;2023-02-01T17:22:12;3.70;;;2.00;;
17496;SDS011;62150;43.582;1.456;2023-02-01T17:24:40;5.57;;;2.37;;
17496;SDS011;62150;43.582;1.456;2023-02-01T17:27:07;4.97;;;2.67;;
17496;SDS011;62150;43.582;1.456;2023-02-01T17:29:35;3.77;;;2.17;;
17496;SDS011;62150;43.582;1.456;2023-02-01T17:32:02;2.87;;;2.03;;
17496;SDS011;62150;43.582;1.456;2023-02-01T17:34:32;4.43;;;2.00;;
17496;SDS011;62150;43.582;1.456;2023-02-01T17:36:59;3.23;;;1.77;;
17496;SDS011;62150;43.582;1.456;2023-02-01T17:39:27;2.70;;;1.80;;
17496;SDS011;62150;43.582;1.456;2023-02-01T17:42:12;2.50;;;1.83;;
17496;SDS011;62150;43.582;1.456;2023-02-01T17:44:40;3.97;;;1.93;;
17496;SDS011;62150;43.582;1.456;2023-02-01T17:47:08;6.47;;;2.80;;
17496;SDS011;62150;43.582;1.456;2023-02-01T17:49:37;7.60;;;2.93;;
17496;SDS011;62150;43.582;1.456;2023-02-01T17:52:04;7.03;;;3.20;;
17496;SDS011;62150;43.582;1.456;2023-02-01T17:54:35;6.73;;;3.07;;
17496;SDS011;62150;43.582;1.456;2023-02-01T17:57:04;6.57;;;3.10;;
17496;SDS011;62150;43.582;1.456;2023-02-01T17:59:37;7.77;;;3.20;;
17496;SDS011;62150;43.582;1.456;2023-02-01T18:02:09;6.83;;;3.10;;
17496;SDS011;62150;43.582;1.456;2023-02-01T18:04:45;7.13;;;3.20;;
17496;SDS011;62150;43.582;1.456;2023-02-01T18:07:14;8.17;;;3.27;;
17496;SDS011;62150;43.582;1.456;2023-02-01T18:09:41;6.17;;;3.10;;
17496;SDS011;62150;43.582;1.456;2023-02-01T18:12:13;6.10;;;2.80;;
17496;SDS011;62150;43.582;1.456;2023-02-01T18:14:43;8.17;;;3.17;;
17496;SDS011;62150;43.582;1.456;2023-02-01T18:17:11;7.87;;;3.10;;
17496;SDS011;62150;43.582;1.456;2023-02-01T18:19:39;8.70;;;3.73;;
17496;SDS011;62150;43.582;1.456;2023-02-01T18:22:10;11.43;;;5.70;;
17496;SDS011;62150;43.582;1.456;2023-02-01T18:24:41;10.80;;;5.20;;
17496;SDS011;62150;43.582;1.456;2023-02-01T18:27:09;9.53;;;4.33;;
17496;SDS011;62150;43.582;1.456;2023-02-01T18:29:36;10.00;;;4.67;;
17496;SDS011;62150;43.582;1.456;2023-02-01T18:32:04;10.43;;;4.93;;
17496;SDS011;62150;43.582;1.456;2023-02-01T18:34:31;11.30;;;4.90;;
17496;SDS011;62150;43.582;1.456;2023-02-01T18:36:59;9.80;;;4.90;;
17496;SDS011;62150;43.582;1.456;2023-02-01T18:39:28;10.23;;;4.70;;
17496;SDS011;62150;43.582;1.456;2023-02-01T18:41:55;11.20;;;5.93;;
17496;SDS011;62150;43.582;1.456;2023-02-01T18:44:23;11.63;;;5.97;;
17496;SDS011;62150;43.582;1.456;2023-02-01T18:46:51;11.20;;;5.50;;
17496;SDS011;62150;43.582;1.456;2023-02-01T18:49:19;12.13;;;6.03;;
17496;SDS011;62150;43.582;1.456;2023-02-01T18:51:46;11.80;;;5.73;;
17496;SDS011;62150;43.582;1.456;2023-02-01T18:54:16;12.10;;;6.00;;
17496;SDS011;62150;43.582;1.456;2023-02-01T18:56:45;13.63;;;5.77;;
17496;SDS011;62150;43.582;1.456;2023-02-01T18:59:12;13.17;;;6.20;;
17496;SDS011;62150;43.582;1.456;2023-02-01T19:01:41;12.00;;;6.07;;
17496;SDS011;62150;43.582;1.456;2023-02-01T19:04:09;12.17;;;5.93;;
17496;SDS011;62150;43.582;1.456;2023-02-01T19:06:38;12.37;;;5.80;;
17496;SDS011;62150;43.582;1.456;2023-02-01T19:09:05;12.77;;;6.87;;
17496;SDS011;62150;43.582;1.456;2023-02-01T19:11:33;12.80;;;7.17;;
17496;SDS011;62150;43.582;1.456;2023-02-01T19:14:02;13.53;;;7.27;;
17496;SDS011;62150;43.582;1.456;2023-02-01T19:16:29;13.77;;;7.17;;
17496;SDS011;62150;43.582;1.456;2023-02-01T19:18:58;13.27;;;7.53;;
17496;SDS011;62150;43.582;1.456;2023-02-01T19:21:25;13.27;;;7.10;;
17496;SDS011;62150;43.582;1.456;2023-02-01T19:23:53;14.03;;;7.50;;
17496;SDS011;62150;43.582;1.456;2023-02-01T19:26:20;13.60;;;7.47;;
17496;SDS011;62150;43.582;1.456;2023-02-01T19:28:48;15.30;;;8.23;;
17496;SDS011;62150;43.582;1.456;2023-02-01T19:31:17;13.87;;;7.53;;
17496;SDS011;62150;43.582;1.456;2023-02-01T19:33:44;12.70;;;6.97;;
17496;SDS011;62150;43.582;1.456;2023-02-01T19:36:12;12.43;;;6.10;;
17496;SDS011;62150;43.582;1.456;2023-02-01T19:38:39;12.27;;;6.27;;
17496;SDS011;62150;43.582;1.456;2023-02-01T19:41:07;14.80;;;7.20;;
17496;SDS011;62150;43.582;1.456;2023-02-01T19:43:34;13.33;;;6.70;;
17496;SDS011;62150;43.582;1.456;2023-02-01T19:46:03;13.77;;;6.63;;
17496;SDS011;62150;43.582;1.456;2023-02-01T19:48:32;13.37;;;7.00;;
17496;SDS011;62150;43.582;1.456;2023-02-01T19:51:00;12.97;;;6.60;;
17496;SDS011;62150;43.582;1.456;2023-02-01T19:53:28;12.57;;;6.13;;
17496;SDS011;62150;43.582;1.456;2023-02-01T19:55:56;12.77;;;6.90;;
17496;SDS011;62150;43.582;1.456;2023-02-01T19:58:25;14.53;;;7.53;;
17496;SDS011;62150;43.582;1.456;2023-02-01T20:00:54;12.83;;;7.40;;
17496;SDS011;62150;43.582;1.456;2023-02-01T20:03:24;13.67;;;7.33;;
17496;SDS011;62150;43.582;1.456;2023-02-01T20:05:54;12.87;;;7.00;;
17496;SDS011;62150;43.582;1.456;2023-02-01T20:08:23;12.70;;;6.67;;
17496;SDS011;62150;43.582;1.456;2023-02-01T20:10:51;12.23;;;6.40;;
17496;SDS011;62150;43.582;1.456;2023-02-01T20:13:19;12.87;;;6.70;;
17496;SDS011;62150;43.582;1.456;2023-02-01T20:15:46;12.00;;;6.50;;
17496;SDS011;62150;43.582;1.456;2023-02-01T20:18:14;12.87;;;6.63;;
17496;SDS011;62150;43.582;1.456;2023-02-01T20:20:44;13.10;;;6.80;;
17496;SDS011;62150;43.582;1.456;2023-02-01T20:23:13;12.83;;;6.93;;
17496;SDS011;62150;43.582;1.456;2023-02-01T20:25:40;14.17;;;7.43;;
17496;SDS011;62150;43.582;1.456;2023-02-01T20:28:08;12.67;;;7.23;;
17496;SDS011;62150;43.582;1.456;2023-02-01T20:30:35;13.80;;;7.60;;
17496;SDS011;62150;43.582;1.456;2023-02-01T20:33:03;13.97;;;7.80;;
17496;SDS011;62150;43.582;1.456;2023-02-01T20:35:30;13.33;;;7.33;;
17496;SDS011;62150;43.582;1.456;2023-02-01T20:37:58;13.70;;;7.33;;
17496;SDS011;62150;43.582;1.456;2023-02-01T20:40:27;14.20;;;8.33;;
17496;SDS011;62150;43.582;1.456;2023-02-01T20:42:55;13.30;;;7.53;;
17496;SDS011;62150;43.582;1.456;2023-02-01T20:45:23;13.33;;;7.37;;
17496;SDS011;62150;43.582;1.456;2023-02-01T20:47:51;14.00;;;7.60;;
17496;SDS011;62150;43.582;1.456;2023-02-01T20:50:18;14.27;;;7.70;;
17496;SDS011;62150;43.582;1.456;2023-02-01T20:52:46;13.13;;;7.07;;
17496;SDS011;62150;43.582;1.456;2023-02-01T20:55:14;12.47;;;6.93;;
17496;SDS011;62150;43.582;1.456;2023-02-01T20:57:43;14.73;;;7.13;;
17496;SDS011;62150;43.582;1.456;2023-02-01T21:00:10;12.63;;;7.00;;
17496;SDS011;62150;43.582;1.456;2023-02-01T21:02:39;13.60;;;7.30;;
17496;SDS011;62150;43.582;1.456;2023-02-01T21:05:07;12.57;;;6.57;;
17496;SDS011;62150;43.582;1.456;2023-02-01T21:07:35;13.00;;;6.70;;
17496;SDS011;62150;43.582;1.456;2023-02-01T21:10:03;12.73;;;6.73;;
17496;SDS011;62150;43.582;1.456;2023-02-01T21:12:32;13.37;;;6.90;;
17496;SDS011;62150;43.582;1.456;2023-02-01T21:15:01;12.43;;;6.33;;
17496;SDS011;62150;43.582;1.456;2023-02-01T21:17:29;12.37;;;6.53;;
17496;SDS011;62150;43.582;1.456;2023-02-01T21:19:57;13.47;;;7.20;;
17496;SDS011;62150;43.582;1.456;2023-02-01T21:22:25;12.43;;;6.00;;
17496;SDS011;62150;43.582;1.456;2023-02-01T21:24:52;11.67;;;6.10;;
17496;SDS011;62150;43.582;1.456;2023-02-01T21:27:20;11.33;;;6.10;;
17496;SDS011;62150;43.582;1.456;2023-02-01T21:29:47;11.60;;;5.53;;
17496;SDS011;62150;43.582;1.456;2023-02-01T21:32:16;12.30;;;5.80;;
17496;SDS011;62150;43.582;1.456;2023-02-01T21:34:44;11.30;;;5.87;;
17496;SDS011;62150;43.582;1.456;2023-02-01T21:37:11;12.13;;;5.90;;
17496;SDS011;62150;43.582;1.456;2023-02-01T21:39:39;11.57;;;5.73;;
17496;SDS011;62150;43.582;1.456;2023-02-01T21:42:07;12.33;;;6.20;;
17496;SDS011;62150;43.582;1.456;2023-02-01T21:44:42;11.63;;;5.87;;
17496;SDS011;62150;43.582;1.456;2023-02-01T21:47:12;11.93;;;5.77;;
17496;SDS011;62150;43.582;1.456;2023-02-01T21:49:42;11.73;;;6.00;;
17496;SDS011;62150;43.582;1.456;2023-02-01T21:52:09;12.40;;;6.60;;
17496;SDS011;62150;43.582;1.456;2023-02-01T21:54:37;12.77;;;6.83;;
17496;SDS011;62150;43.582;1.456;2023-02-01T21:57:05;12.20;;;6.33;;
17496;SDS011;62150;43.582;1.456;2023-02-01T21:59:33;10.67;;;6.10;;
17496;SDS011;62150;43.582;1.456;2023-02-01T22:02:01;13.73;;;6.67;;
17496;SDS011;62150;43.582;1.456;2023-02-01T22:04:30;12.30;;;6.90;;
17496;SDS011;62150;43.582;1.456;2023-02-01T22:06:59;12.90;;;7.30;;
17496;SDS011;62150;43.582;1.456;2023-02-01T22:09:26;15.07;;;6.77;;
17496;SDS011;62150;43.582;1.456;2023-02-01T22:11:54;13.57;;;6.80;;
17496;SDS011;62150;43.582;1.456;2023-02-01T22:14:22;13.50;;;6.90;;
17496;SDS011;62150;43.582;1.456;2023-02-01T22:16:49;12.83;;;7.13;;
